Welcome to the Meteorological Center of IVAO Morocco:



FIR Casablanca South - GMMM_S_CTR

METAR GMAD : 2019/04/21 00:30 GMAD 210030Z 30014KT CAVOK 18/07 Q1008 NOSIG

METAR GMAG : 2019/04/20 18:00 GMAG 201800Z 36016KT 9999 BKN016 16/07 Q1010 NOSIG

METAR GMAT : 2019/04/20 18:00 GMAT 201800Z 36020KT 9999 BKN016 18/10 Q1011 NOSIG

METAR GMAZ :

METAR GMMD : 2019/04/20 19:00 GMMD 201900Z 20005KT 9999 TS BKN026TCU SCT030CB 14/10 Q1011 TEMPO SHRA

METAR GMMI : 2019/04/20 19:00 GMMI 201900Z 02016KT 6000 FEW016 17/11 Q1011 TEMPO 02023KT

METAR GMMX : 2019/04/21 00:00 GMMX 210000Z 01007KT 330V040 9999 BKN023 FEW030CB SCT080 14/09 Q1013 NOSIG

METAR GMMZ : 2019/04/21 00:00 GMMZ 210000Z VRB02KT 8000 SCT040 FEW050CB 10/05 Q1010 NOSIG

 

FIR Casablanca North - GMMM_N_CTR

METAR GMMB : 2019/04/21 00:00 GMMB 210000Z AUTO VRB01KT //// R32/P2000N VV001 11/11 Q1013 NOSIG

METAR GMME : 2019/04/21 00:00 GMME 210000Z 00000KT 9999 SCT016 SCT020 10/09 Q1011 NOSIG

METAR GMMN : 2019/04/21 00:30 GMMN 210030Z /////KT 9999 SCT016 11/11 Q1012 NOSIG

METAR GMMT : 2017/09/24 06:00 GMMT 240600Z 12006KT 9999 SCT017 26/21 Q1018 NOSIG

METAR GMTN : 2019/04/20 21:00 GMTN 202100Z 36006KT 9999 SCT030 15/12 Q1012 NOSIG

METAR GMTT : 2019/04/21 00:30 GMTT 210030Z 11006KT 8000 SCT013 SCT200 12/10 Q1011 NOSIG

 

FIR Casablanca East - GMMM_E_CTR

METAR GMFB :

METAR GMFF : 2019/04/21 00:30 GMFF 210030Z 34003KT 300V020 9999 SCT030 BKN080 11/09 Q1011 NOSIG

METAR GMFI : 2016/05/22 17:00 GMFI 221700Z 37006KT 9999 SCT016 23/08 Q1027 NOSIG

METAR GMFK : 2019/04/21 00:00 GMFK 210000Z 35023G36KT 9999 FEW023 SCT080 13/02 Q1007 NOSIG

METAR GMFO : 2019/04/21 00:00 GMFO 210000Z 25003KT 230V290 9999 FEW016 SCT050 09/09 Q1011 NOSIG

METAR GMMW : 2019/04/21 00:00 GMMW 210000Z 25004KT 9999 FEW020 SCT100 11/08 Q1010 NOSIG

METAR GMTA : 2019/04/21 00:00 GMTA 210000Z 10004KT 9999 SCT020 SCT030 14/10 Q1011 NOSIG

 

FIR Oceanic - GMMM_OC_CTR // FIR Domestic - GMMM_CTR

 

FIR Canaries - GCCC_CTR

METAR GMMH : 2019/04/20 21:00 GMMH 202100Z 02018KT 6000 NSC 18/14 Q1014 NOSIG

METAR GMML : 2019/04/21 00:00 GMML 210000Z 01008KT 9999 FEW020 17/13 Q1016 NOSIG

 

 

 

Need metar from Morocco airports? enjoy your trip ;) (from NOAA website).